Adam Asnyk — 9HA4195 — position and weather

sailwx.info

Track history (hours):
 
Tides and Currents Weather Stations Pressure Air Temp Water Temp Dewpoint Dewpoint Depression Visibility Wind Speed Wind Dir Waves Ship Positions

Adam Asnyk

Last reported at 2018-Jun-09 00:47 UTC. Time now 2018-Jun-24 05:05 UTC.
Position N 36°09' E 015°18'.
Warning: this ship's position is 15 days out of date.

Length 200 m; draft 9.4 m.

Type: Ship. MMSI: 249319000.

Date/timePositionNaut miles runAvg speedWind from/ knotsBaromVisibWave heightAir tempDewpointWater temp
2018-Jun-09 00:47N 36°09' E 015°18'414.9
2018-Jun-09 00:30N 36°10' E 015°13'814.8
2018-Jun-09 00:00N 36°13' E 015°04'815.2
2018-Jun-08 23:30N 36°16' E 014°56'815.4
2018-Jun-08 23:00N 36°18' E 014°47'815.1
2018-Jun-08 22:30N 36°21' E 014°38'714.8
2018-Jun-08 22:00N 36°23' E 014°29'714.9
2018-Jun-08 21:30N 36°25' E 014°20'714.7
2018-Jun-08 21:00N 36°28' E 014°12'714.9
2018-Jun-08 20:30N 36°30' E 014°03'815.0
2018-Jun-08 19:59N 36°32' E 013°53'715.1
2018-Jun-08 19:30N 36°34' E 013°45'815.1
2018-Jun-08 19:00N 36°36' E 013°36'714.6
2018-Jun-08 18:30N 36°38' E 013°27'714.3
2018-Jun-08 18:00N 36°40' E 013°18'714.2
2018-Jun-08 17:30N 36°42' E 013°10'714.2
2018-Jun-08 17:00N 36°44' E 013°01'814.6
2018-Jun-08 16:29N 36°46' E 012°52'  
2018-Jun-06 06:21N 36°00' W 005°11'617.9
2018-Jun-06 06:01N 35°59' W 005°18'917.1
2018-Jun-06 05:31N 35°57' W 005°28'815.5
2018-Jun-06 04:59N 35°55' W 005°38'1014.5
2018-Jun-06 04:18N 35°55' W 005°50'514.6
2018-Jun-06 03:58N 35°55' W 005°56'23713.0
2018-Jun-05 09:46N 38°13' W 009°58'714.9
2018-Jun-05 09:17N 38°20' W 010°00'415.1
2018-Jun-05 09:00N 38°24' W 010°02'1515.1
2018-Jun-05 07:59N 38°39' W 010°06'714.9
2018-Jun-05 07:30N 38°46' W 010°06'715.0
2018-Jun-05 07:00N 38°54' W 010°07'714.6
2018-Jun-05 06:30N 39°01' W 010°06'714.5
2018-Jun-05 06:00N 39°08' W 010°06'714.5
2018-Jun-05 05:29N 39°16' W 010°06'715.2
2018-Jun-05 05:01N 39°23' W 010°07'915.1
2018-Jun-05 04:26N 39°32' W 010°07'63914.0
2018-Jun-03 06:37N 49°24' W 004°29'111.9
2018-Jun-03 06:30N 49°25' W 004°27'813.5
2018-Jun-03 05:54N 49°29' W 004°16'714.7
2018-Jun-03 05:25N 49°31' W 004°06'614.9
2018-Jun-03 05:00N 49°35' W 003°58'815.4
2018-Jun-03 04:30N 49°39' W 003°48'815.8
2018-Jun-03 04:00N 49°43' W 003°38'816.2
2018-Jun-03 03:30N 49°47' W 003°27'816.2
2018-Jun-03 03:00N 49°51' W 003°17'816.1
2018-Jun-03 02:30N 49°55' W 003°06'815.9
2018-Jun-03 02:00N 49°59' W 002°55'815.3
2018-Jun-03 01:30N 50°01' W 002°44'814.7
2018-Jun-03 00:58N 50°03' W 002°31'914.0
2018-Jun-03 00:19N 50°06' W 002°18'413.3
2018-Jun-03 00:01N 50°07' W 002°12'612.7
2018-Jun-02 23:30N 50°09' W 002°02'612.0
2018-Jun-02 23:01N 50°10' W 001°53'611.6
2018-Jun-02 22:30N 50°12' W 001°45'611.7
2018-Jun-02 22:01N 50°14' W 001°36'611.7
2018-Jun-02 21:30N 50°16' W 001°27'612.0
2018-Jun-02 21:01N 50°17' W 001°18'612.9
2018-Jun-02 20:30N 50°19' W 001°08'713.9
2018-Jun-02 20:00N 50°21' W 000°58'714.8
2018-Jun-02 19:31N 50°23' W 000°47'815.2
2018-Jun-02 19:00N 50°25' W 000°35'815.6
2018-Jun-02 18:31N 50°27' W 000°24'815.7
2018-Jun-02 18:01N 50°30' W 000°12'815.7
2018-Jun-02 17:31N 50°32' W 000°00'815.7
2018-Jun-02 17:01N 50°34' E 000°12'815.5
2018-Jun-02 16:31N 50°36' E 000°24'715.0
2018-Jun-02 16:01N 50°39' E 000°35'714.3
2018-Jun-02 15:30N 50°43' E 000°44'713.6
2018-Jun-02 15:00N 50°47' E 000°53'612.8
2018-Jun-02 14:30N 50°50' E 001°01'712.5
2018-Jun-02 13:59N 50°54' E 001°10'612.1
2018-Jun-02 13:30N 50°58' E 001°17'611.6
2018-Jun-02 13:00N 51°02' E 001°24'612.8
2018-Jun-02 12:30N 51°06' E 001°31'713.9
2018-Jun-02 12:00N 51°10' E 001°40'815.0
2018-Jun-02 11:30N 51°16' E 001°48'815.9
2018-Jun-02 11:00N 51°22' E 001°56'714.4
2018-Jun-02 10:30N 51°22' E 002°08'714.1
2018-Jun-02 10:01N 51°20' E 002°19'814.8
2018-Jun-02 09:28N 51°23' E 002°31'714.1
2018-Jun-02 08:57N 51°22' E 002°42'511.8
2018-Jun-02 08:30N 51°22' E 002°51'713.9
2018-Jun-02 08:01N 51°24' E 003°01'814.2
2018-Jun-02 07:29N 51°25' E 003°13'815.8
2018-Jun-02 07:00N 51°25' E 003°26'613.0
2018-Jun-02 06:30N 51°26' E 003°36'5 9.7
2018-Jun-02 06:00N 51°24' E 003°43'713.6
2018-Jun-02 05:30N 51°21' E 003°52'713.4
2018-Jun-02 05:00N 51°26' E 003°59'510.6
2018-Jun-02 04:30N 51°22' E 004°05'5 9.8
2018-Jun-02 04:00N 51°24' E 004°12'5 9.2
2018-Jun-02 03:30N 51°20' E 004°17'3 7.0
2018-Jun-02 03:00N 51°17' E 004°19'1 1.0
2018-Jun-02 02:31N 51°17' E 004°20'0 0.3
2018-Jun-02 02:00N 51°17' E 004°20'1 1.5
2018-Jun-02 01:30N 51°17' E 004°21'1 1.2
2018-Jun-02 01:00N 51°17' E 004°22'0 0.0
2018-Jun-02 00:30N 51°17' E 004°22'0 0.0
2018-Jun-01 23:57N 51°17' E 004°22'0 0.0
2018-Jun-01 23:29N 51°17' E 004°22'0 0.0
2018-Jun-01 22:59N 51°17' E 004°22'0 0.0
2018-Jun-01 22:30N 51°17' E 004°22'0 0.0
2018-Jun-01 21:59N 51°17' E 004°22'0 0.0
2018-Jun-01 21:29N 51°17' E 004°22'0 0.0
2018-Jun-01 20:58N 51°17' E 004°22'0 0.0
2018-Jun-01 20:25N 51°17' E 004°22'0 0.0
2018-Jun-01 19:58N 51°17' E 004°22'0 0.0
2018-Jun-01 19:25N 51°17' E 004°22'0 0.0
2018-Jun-01 18:57N 51°17' E 004°22'0 0.0
2018-Jun-01 18:27N 51°17' E 004°22'0 0.0
2018-Jun-01 18:00N 51°17' E 004°22'0 0.0
2018-Jun-01 17:30N 51°17' E 004°22'0 0.0
2018-Jun-01 16:57N 51°17' E 004°22'0 0.0
2018-Jun-01 16:29N 51°17' E 004°22'0 0.0
2018-Jun-01 15:56N 51°17' E 004°22'0 0.0
2018-Jun-01 15:29N 51°17' E 004°22'0 0.0
2018-Jun-01 14:56N 51°17' E 004°22'0 0.0
2018-Jun-01 14:29N 51°17' E 004°22'0 0.0
2018-Jun-01 13:58N 51°17' E 004°22'0 0.0
2018-Jun-01 13:28N 51°17' E 004°22'0 0.0
2018-Jun-01 12:52N 51°17' E 004°22'0 0.0
2018-Jun-01 12:28N 51°17' E 004°22'0 0.0
2018-Jun-01 12:00N 51°17' E 004°22'0 0.0
2018-Jun-01 11:30N 51°17' E 004°22'0 0.0
2018-Jun-01 11:00N 51°17' E 004°22'0 0.0
2018-Jun-01 10:30N 51°17' E 004°22'0 0.0
2018-Jun-01 09:51N 51°17' E 004°22'0 0.0
2018-Jun-01 09:29N 51°17' E 004°22'0 0.0
2018-Jun-01 08:59N 51°17' E 004°22'0 0.0
2018-Jun-01 08:29N 51°17' E 004°22'0 0.0
2018-Jun-01 07:59N 51°17' E 004°22'0 0.0
2018-Jun-01 07:28N 51°17' E 004°22'0 0.0
2018-Jun-01 06:58N 51°17' E 004°22'0 0.0
2018-Jun-01 06:28N 51°17' E 004°22'0 0.0
2018-Jun-01 05:58N 51°17' E 004°22'0 0.0
2018-Jun-01 05:28N 51°17' E 004°22'0 0.0
2018-Jun-01 04:57N 51°17' E 004°22'0 0.0
2018-Jun-01 04:27N 51°17' E 004°22'0 0.0
2018-Jun-01 04:00N 51°17' E 004°22'0 0.0
2018-Jun-01 03:30N 51°17' E 004°22'0 0.0
2018-Jun-01 03:00N 51°17' E 004°22'0 0.0
2018-Jun-01 02:29N 51°17' E 004°22'0 0.0
2018-Jun-01 01:59N 51°17' E 004°22'0 0.0
2018-Jun-01 01:29N 51°17' E 004°22'0 0.0
2018-Jun-01 00:59N 51°17' E 004°22'0 0.0
2018-Jun-01 00:25N 51°17' E 004°22'0 0.0
2018-May-31 23:58N 51°17' E 004°22'0 0.0
2018-May-31 23:28N 51°17' E 004°22'0 0.0
2018-May-31 22:58N 51°17' E 004°22'0 0.0
2018-May-31 22:28N 51°17' E 004°22'0 0.0
2018-May-31 22:00N 51°17' E 004°22'0 0.0
2018-May-31 21:30N 51°17' E 004°22'0 0.0
2018-May-31 21:00N 51°17' E 004°22'0 0.0
2018-May-31 20:30N 51°17' E 004°22'0 0.0
2018-May-31 20:00N 51°17' E 004°22'0 0.0
2018-May-31 19:29N 51°17' E 004°22'0 0.0
2018-May-31 18:59N 51°17' E 004°22'0 0.0
2018-May-31 18:29N 51°17' E 004°22'0 0.0
2018-May-31 17:59N 51°17' E 004°22'0 0.0
2018-May-31 17:28N 51°17' E 004°22'0 0.0
2018-May-31 16:58N 51°17' E 004°22'0 0.0
2018-May-31 16:28N 51°17' E 004°22'0 0.0
2018-May-31 15:58N 51°17' E 004°22'0 0.0
2018-May-31 15:28N 51°17' E 004°22'0 0.0
2018-May-31 15:00N 51°17' E 004°22'0 0.0
2018-May-31 14:30N 51°17' E 004°22'0 0.0
2018-May-31 13:57N 51°17' E 004°22'0 0.0
2018-May-31 13:27N 51°17' E 004°22'0 0.0
2018-May-31 13:00N 51°17' E 004°22'0 0.0
2018-May-31 12:29N 51°17' E 004°22'0 0.0
2018-May-31 11:59N 51°17' E 004°22'0 0.0
2018-May-31 11:29N 51°17' E 004°22'0 0.0
2018-May-31 10:59N 51°17' E 004°22'0 0.0
2018-May-31 10:25N 51°17' E 004°22'0 0.0
2018-May-31 09:58N 51°17' E 004°22'0 0.0
2018-May-31 09:28N 51°17' E 004°22'0 0.0
2018-May-31 08:58N 51°17' E 004°22'0 0.0
2018-May-31 08:28N 51°17' E 004°22'0 0.0
2018-May-31 08:00N 51°17' E 004°22'0 0.0
2018-May-31 07:30N 51°17' E 004°22'0 0.0
2018-May-31 07:00N 51°17' E 004°22'0 0.0
2018-May-31 06:30N 51°17' E 004°22'0 0.0
2018-May-31 06:00N 51°17' E 004°22'0 0.0
2018-May-31 05:29N 51°17' E 004°22'0 0.0
2018-May-31 04:53N 51°17' E 004°22'0 0.0
2018-May-31 04:29N 51°17' E 004°22'0 0.0
2018-May-31 03:59N 51°17' E 004°22'0 0.0
2018-May-31 03:28N 51°17' E 004°22'0 0.0
2018-May-31 02:58N 51°17' E 004°22'0 0.0
2018-May-31 02:28N 51°17' E 004°22'0 0.0
2018-May-31 01:58N 51°17' E 004°22'0 0.0
2018-May-31 01:28N 51°17' E 004°22'0 0.0
2018-May-31 01:00N 51°17' E 004°22'0 0.0
2018-May-31 00:30N 51°17' E 004°22'0 0.0
2018-May-31 00:00N 51°17' E 004°22'0 0.0
2018-May-30 23:30N 51°17' E 004°22'0 0.0
2018-May-30 23:00N 51°17' E 004°22'0 0.0
2018-May-30 22:29N 51°17' E 004°22'0 0.0
2018-May-30 21:59N 51°17' E 004°22'0 0.0
2018-May-30 21:26N 51°17' E 004°22'0 0.0
2018-May-30 20:59N 51°17' E 004°22'0 0.0
2018-May-30 20:25N 51°17' E 004°22'0 0.0
2018-May-30 19:58N 51°17' E 004°22'0 0.0
2018-May-30 19:28N 51°17' E 004°22'0 0.0
2018-May-30 18:58N 51°17' E 004°22'0 0.0
2018-May-30 18:28N 51°17' E 004°22'0 0.0
2018-May-30 17:51N 51°17' E 004°22'0 0.0
2018-May-30 17:27N 51°17' E 004°22'0 0.0
2018-May-30 16:57N 51°17' E 004°22'0 0.0
2018-May-30 16:27N 51°17' E 004°22'0 0.0
2018-May-30 15:59N 51°17' E 004°22'0 0.0
2018-May-30 15:29N 51°17' E 004°22'0 0.0
2018-May-30 14:53N 51°17' E 004°22'0 0.0
2018-May-30 14:29N 51°17' E 004°22'0 0.0
2018-May-30 13:59N 51°17' E 004°22'0 0.0
2018-May-30 13:28N 51°17' E 004°22'0 0.0
2018-May-30 12:58N 51°17' E 004°22'0 0.0
2018-May-30 12:28N 51°17' E 004°22'0 0.0
2018-May-30 11:58N 51°17' E 004°22'0 0.0
2018-May-30 11:28N 51°17' E 004°22'0 0.0
2018-May-30 11:00N 51°17' E 004°22'0 0.0
2018-May-30 10:24N 51°17' E 004°22'0 0.0
2018-May-30 10:00N 51°17' E 004°22'0 0.0
2018-May-30 09:30N 51°17' E 004°22'0 0.0
2018-May-30 08:59N 51°17' E 004°22'0 0.0
2018-May-30 08:29N 51°17' E 004°22'0 0.0
2018-May-30 07:59N 51°17' E 004°22'0 0.0
2018-May-30 07:26N 51°17' E 004°22'0 0.0
2018-May-30 06:56N 51°17' E 004°22'0 0.0
2018-May-30 06:25N 51°17' E 004°22'0 0.0
2018-May-30 05:58N 51°17' E 004°22'0 0.0
2018-May-30 05:28N 51°17' E 004°22'0 0.0
2018-May-30 04:55N 51°17' E 004°22'0 0.0
2018-May-30 04:31N 51°17' E 004°22'0 0.0
2018-May-30 04:00N 51°17' E 004°22'1 2.7
2018-May-30 03:30N 51°17' E 004°20'3 6.7
2018-May-30 03:00N 51°20' E 004°18'1 1.1
2018-May-30 02:30N 51°21' E 004°17'0 0.1
2018-May-30 02:00N 51°21' E 004°17'2 4.7
2018-May-30 01:30N 51°22' E 004°14'510.3
2018-May-30 01:01N 51°22' E 004°05'  
Track history (hours):
 
Tides and Currents Weather Stations Pressure Air Temp Water Temp Dewpoint Dewpoint Depression Visibility Wind Speed Wind Dir Waves Ship Positions

Adam Asnyk

Last reported at 2018-Jun-09 00:47 UTC. Time now 2018-Jun-24 05:05 UTC.
Position N 36°09' E 015°18'.
Warning: this ship's position is 15 days out of date.

Length 200 m; draft 9.4 m.

Type: Ship. MMSI: 249319000.

Date/timePositionNaut miles runAvg speedWind from/ knotsBaromVisibWave heightAir tempDewpointWater temp
2018-Jun-09 00:47N 36°09' E 015°18'414.9
2018-Jun-09 00:30N 36°10' E 015°13'814.8
2018-Jun-09 00:00N 36°13' E 015°04'815.2
2018-Jun-08 23:30N 36°16' E 014°56'815.4
2018-Jun-08 23:00N 36°18' E 014°47'815.1
2018-Jun-08 22:30N 36°21' E 014°38'714.8
2018-Jun-08 22:00N 36°23' E 014°29'714.9
2018-Jun-08 21:30N 36°25' E 014°20'714.7
2018-Jun-08 21:00N 36°28' E 014°12'714.9
2018-Jun-08 20:30N 36°30' E 014°03'815.0
2018-Jun-08 19:59N 36°32' E 013°53'715.1
2018-Jun-08 19:30N 36°34' E 013°45'815.1
2018-Jun-08 19:00N 36°36' E 013°36'714.6
2018-Jun-08 18:30N 36°38' E 013°27'714.3
2018-Jun-08 18:00N 36°40' E 013°18'714.2
2018-Jun-08 17:30N 36°42' E 013°10'714.2
2018-Jun-08 17:00N 36°44' E 013°01'814.6
2018-Jun-08 16:29N 36°46' E 012°52'  
2018-Jun-06 06:21N 36°00' W 005°11'617.9
2018-Jun-06 06:01N 35°59' W 005°18'917.1
2018-Jun-06 05:31N 35°57' W 005°28'815.5
2018-Jun-06 04:59N 35°55' W 005°38'1014.5
2018-Jun-06 04:18N 35°55' W 005°50'514.6
2018-Jun-06 03:58N 35°55' W 005°56'23713.0
2018-Jun-05 09:46N 38°13' W 009°58'714.9
2018-Jun-05 09:17N 38°20' W 010°00'415.1
2018-Jun-05 09:00N 38°24' W 010°02'1515.1
2018-Jun-05 07:59N 38°39' W 010°06'714.9
2018-Jun-05 07:30N 38°46' W 010°06'715.0
2018-Jun-05 07:00N 38°54' W 010°07'714.6
2018-Jun-05 06:30N 39°01' W 010°06'714.5
2018-Jun-05 06:00N 39°08' W 010°06'714.5
2018-Jun-05 05:29N 39°16' W 010°06'715.2
2018-Jun-05 05:01N 39°23' W 010°07'915.1
2018-Jun-05 04:26N 39°32' W 010°07'63914.0
2018-Jun-03 06:37N 49°24' W 004°29'111.9
2018-Jun-03 06:30N 49°25' W 004°27'813.5
2018-Jun-03 05:54N 49°29' W 004°16'714.7
2018-Jun-03 05:25N 49°31' W 004°06'614.9
2018-Jun-03 05:00N 49°35' W 003°58'815.4
2018-Jun-03 04:30N 49°39' W 003°48'815.8
2018-Jun-03 04:00N 49°43' W 003°38'816.2
2018-Jun-03 03:30N 49°47' W 003°27'816.2
2018-Jun-03 03:00N 49°51' W 003°17'816.1
2018-Jun-03 02:30N 49°55' W 003°06'815.9
2018-Jun-03 02:00N 49°59' W 002°55'815.3
2018-Jun-03 01:30N 50°01' W 002°44'814.7
2018-Jun-03 00:58N 50°03' W 002°31'914.0
2018-Jun-03 00:19N 50°06' W 002°18'413.3
2018-Jun-03 00:01N 50°07' W 002°12'612.7
2018-Jun-02 23:30N 50°09' W 002°02'612.0
2018-Jun-02 23:01N 50°10' W 001°53'611.6
2018-Jun-02 22:30N 50°12' W 001°45'611.7
2018-Jun-02 22:01N 50°14' W 001°36'611.7
2018-Jun-02 21:30N 50°16' W 001°27'612.0
2018-Jun-02 21:01N 50°17' W 001°18'612.9
2018-Jun-02 20:30N 50°19' W 001°08'713.9
2018-Jun-02 20:00N 50°21' W 000°58'714.8
2018-Jun-02 19:31N 50°23' W 000°47'815.2
2018-Jun-02 19:00N 50°25' W 000°35'815.6
2018-Jun-02 18:31N 50°27' W 000°24'815.7
2018-Jun-02 18:01N 50°30' W 000°12'815.7
2018-Jun-02 17:31N 50°32' W 000°00'815.7
2018-Jun-02 17:01N 50°34' E 000°12'815.5
2018-Jun-02 16:31N 50°36' E 000°24'715.0
2018-Jun-02 16:01N 50°39' E 000°35'714.3
2018-Jun-02 15:30N 50°43' E 000°44'713.6
2018-Jun-02 15:00N 50°47' E 000°53'612.8
2018-Jun-02 14:30N 50°50' E 001°01'712.5
2018-Jun-02 13:59N 50°54' E 001°10'612.1
2018-Jun-02 13:30N 50°58' E 001°17'611.6
2018-Jun-02 13:00N 51°02' E 001°24'612.8
2018-Jun-02 12:30N 51°06' E 001°31'713.9
2018-Jun-02 12:00N 51°10' E 001°40'815.0
2018-Jun-02 11:30N 51°16' E 001°48'815.9
2018-Jun-02 11:00N 51°22' E 001°56'714.4
2018-Jun-02 10:30N 51°22' E 002°08'714.1
2018-Jun-02 10:01N 51°20' E 002°19'814.8
2018-Jun-02 09:28N 51°23' E 002°31'714.1
2018-Jun-02 08:57N 51°22' E 002°42'511.8
2018-Jun-02 08:30N 51°22' E 002°51'713.9
2018-Jun-02 08:01N 51°24' E 003°01'814.2
2018-Jun-02 07:29N 51°25' E 003°13'815.8
2018-Jun-02 07:00N 51°25' E 003°26'613.0
2018-Jun-02 06:30N 51°26' E 003°36'5 9.7
2018-Jun-02 06:00N 51°24' E 003°43'713.6
2018-Jun-02 05:30N 51°21' E 003°52'713.4
2018-Jun-02 05:00N 51°26' E 003°59'510.6
2018-Jun-02 04:30N 51°22' E 004°05'5 9.8
2018-Jun-02 04:00N 51°24' E 004°12'5 9.2
2018-Jun-02 03:30N 51°20' E 004°17'3 7.0
2018-Jun-02 03:00N 51°17' E 004°19'1 1.0
2018-Jun-02 02:31N 51°17' E 004°20'0 0.3
2018-Jun-02 02:00N 51°17' E 004°20'1 1.5
2018-Jun-02 01:30N 51°17' E 004°21'1 1.2
2018-Jun-02 01:00N 51°17' E 004°22'0 0.0
2018-Jun-02 00:30N 51°17' E 004°22'0 0.0
2018-Jun-01 23:57N 51°17' E 004°22'0 0.0
2018-Jun-01 23:29N 51°17' E 004°22'0 0.0
2018-Jun-01 22:59N 51°17' E 004°22'0 0.0
2018-Jun-01 22:30N 51°17' E 004°22'0 0.0
2018-Jun-01 21:59N 51°17' E 004°22'0 0.0
2018-Jun-01 21:29N 51°17' E 004°22'0 0.0
2018-Jun-01 20:58N 51°17' E 004°22'0 0.0
2018-Jun-01 20:25N 51°17' E 004°22'0 0.0
2018-Jun-01 19:58N 51°17' E 004°22'0 0.0
2018-Jun-01 19:25N 51°17' E 004°22'0 0.0
2018-Jun-01 18:57N 51°17' E 004°22'0 0.0
2018-Jun-01 18:27N 51°17' E 004°22'0 0.0
2018-Jun-01 18:00N 51°17' E 004°22'0 0.0
2018-Jun-01 17:30N 51°17' E 004°22'0 0.0
2018-Jun-01 16:57N 51°17' E 004°22'0 0.0
2018-Jun-01 16:29N 51°17' E 004°22'0 0.0
2018-Jun-01 15:56N 51°17' E 004°22'0 0.0
2018-Jun-01 15:29N 51°17' E 004°22'0 0.0
2018-Jun-01 14:56N 51°17' E 004°22'0 0.0
2018-Jun-01 14:29N 51°17' E 004°22'0 0.0
2018-Jun-01 13:58N 51°17' E 004°22'0 0.0
2018-Jun-01 13:28N 51°17' E 004°22'0 0.0
2018-Jun-01 12:52N 51°17' E 004°22'0 0.0
2018-Jun-01 12:28N 51°17' E 004°22'0 0.0
2018-Jun-01 12:00N 51°17' E 004°22'0 0.0
2018-Jun-01 11:30N 51°17' E 004°22'0 0.0
2018-Jun-01 11:00N 51°17' E 004°22'0 0.0
2018-Jun-01 10:30N 51°17' E 004°22'0 0.0
2018-Jun-01 09:51N 51°17' E 004°22'0 0.0
2018-Jun-01 09:29N 51°17' E 004°22'0 0.0
2018-Jun-01 08:59N 51°17' E 004°22'0 0.0
2018-Jun-01 08:29N 51°17' E 004°22'0 0.0
2018-Jun-01 07:59N 51°17' E 004°22'0 0.0
2018-Jun-01 07:28N 51°17' E 004°22'0 0.0
2018-Jun-01 06:58N 51°17' E 004°22'0 0.0
2018-Jun-01 06:28N 51°17' E 004°22'0 0.0
2018-Jun-01 05:58N 51°17' E 004°22'0 0.0
2018-Jun-01 05:28N 51°17' E 004°22'0 0.0
2018-Jun-01 04:57N 51°17' E 004°22'0 0.0
2018-Jun-01 04:27N 51°17' E 004°22'0 0.0
2018-Jun-01 04:00N 51°17' E 004°22'0 0.0
2018-Jun-01 03:30N 51°17' E 004°22'0 0.0
2018-Jun-01 03:00N 51°17' E 004°22'0 0.0
2018-Jun-01 02:29N 51°17' E 004°22'0 0.0
2018-Jun-01 01:59N 51°17' E 004°22'0 0.0
2018-Jun-01 01:29N 51°17' E 004°22'0 0.0
2018-Jun-01 00:59N 51°17' E 004°22'0 0.0
2018-Jun-01 00:25N 51°17' E 004°22'0 0.0
2018-May-31 23:58N 51°17' E 004°22'0 0.0
2018-May-31 23:28N 51°17' E 004°22'0 0.0
2018-May-31 22:58N 51°17' E 004°22'0 0.0
2018-May-31 22:28N 51°17' E 004°22'0 0.0
2018-May-31 22:00N 51°17' E 004°22'0 0.0
2018-May-31 21:30N 51°17' E 004°22'0 0.0
2018-May-31 21:00N 51°17' E 004°22'0 0.0
2018-May-31 20:30N 51°17' E 004°22'0 0.0
2018-May-31 20:00N 51°17' E 004°22'0 0.0
2018-May-31 19:29N 51°17' E 004°22'0 0.0
2018-May-31 18:59N 51°17' E 004°22'0 0.0
2018-May-31 18:29N 51°17' E 004°22'0 0.0
2018-May-31 17:59N 51°17' E 004°22'0 0.0
2018-May-31 17:28N 51°17' E 004°22'0 0.0
2018-May-31 16:58N 51°17' E 004°22'0 0.0
2018-May-31 16:28N 51°17' E 004°22'0 0.0
2018-May-31 15:58N 51°17' E 004°22'0 0.0
2018-May-31 15:28N 51°17' E 004°22'0 0.0
2018-May-31 15:00N 51°17' E 004°22'0 0.0
2018-May-31 14:30N 51°17' E 004°22'0 0.0
2018-May-31 13:57N 51°17' E 004°22'0 0.0
2018-May-31 13:27N 51°17' E 004°22'0 0.0
2018-May-31 13:00N 51°17' E 004°22'0 0.0
2018-May-31 12:29N 51°17' E 004°22'0 0.0
2018-May-31 11:59N 51°17' E 004°22'0 0.0
2018-May-31 11:29N 51°17' E 004°22'0 0.0
2018-May-31 10:59N 51°17' E 004°22'0 0.0
2018-May-31 10:25N 51°17' E 004°22'0 0.0
2018-May-31 09:58N 51°17' E 004°22'0 0.0
2018-May-31 09:28N 51°17' E 004°22'0 0.0
2018-May-31 08:58N 51°17' E 004°22'0 0.0
2018-May-31 08:28N 51°17' E 004°22'0 0.0
2018-May-31 08:00N 51°17' E 004°22'0 0.0
2018-May-31 07:30N 51°17' E 004°22'0 0.0
2018-May-31 07:00N 51°17' E 004°22'0 0.0
2018-May-31 06:30N 51°17' E 004°22'0 0.0
2018-May-31 06:00N 51°17' E 004°22'0 0.0
2018-May-31 05:29N 51°17' E 004°22'0 0.0
2018-May-31 04:53N 51°17' E 004°22'0 0.0
2018-May-31 04:29N 51°17' E 004°22'0 0.0
2018-May-31 03:59N 51°17' E 004°22'0 0.0
2018-May-31 03:28N 51°17' E 004°22'0 0.0
2018-May-31 02:58N 51°17' E 004°22'0 0.0
2018-May-31 02:28N 51°17' E 004°22'0 0.0
2018-May-31 01:58N 51°17' E 004°22'0 0.0
2018-May-31 01:28N 51°17' E 004°22'0 0.0
2018-May-31 01:00N 51°17' E 004°22'0 0.0
2018-May-31 00:30N 51°17' E 004°22'0 0.0
2018-May-31 00:00N 51°17' E 004°22'0 0.0
2018-May-30 23:30N 51°17' E 004°22'0 0.0
2018-May-30 23:00N 51°17' E 004°22'0 0.0
2018-May-30 22:29N 51°17' E 004°22'0 0.0
2018-May-30 21:59N 51°17' E 004°22'0 0.0
2018-May-30 21:26N 51°17' E 004°22'0 0.0
2018-May-30 20:59N 51°17' E 004°22'0 0.0
2018-May-30 20:25N 51°17' E 004°22'0 0.0
2018-May-30 19:58N 51°17' E 004°22'0 0.0
2018-May-30 19:28N 51°17' E 004°22'0 0.0
2018-May-30 18:58N 51°17' E 004°22'0 0.0
2018-May-30 18:28N 51°17' E 004°22'0 0.0
2018-May-30 17:51N 51°17' E 004°22'0 0.0
2018-May-30 17:27N 51°17' E 004°22'0 0.0
2018-May-30 16:57N 51°17' E 004°22'0 0.0
2018-May-30 16:27N 51°17' E 004°22'0 0.0
2018-May-30 15:59N 51°17' E 004°22'0 0.0
2018-May-30 15:29N 51°17' E 004°22'0 0.0
2018-May-30 14:53N 51°17' E 004°22'0 0.0
2018-May-30 14:29N 51°17' E 004°22'0 0.0
2018-May-30 13:59N 51°17' E 004°22'0 0.0
2018-May-30 13:28N 51°17' E 004°22'0 0.0
2018-May-30 12:58N 51°17' E 004°22'0 0.0
2018-May-30 12:28N 51°17' E 004°22'0 0.0
2018-May-30 11:58N 51°17' E 004°22'0 0.0
2018-May-30 11:28N 51°17' E 004°22'0 0.0
2018-May-30 11:00N 51°17' E 004°22'0 0.0
2018-May-30 10:24N 51°17' E 004°22'0 0.0
2018-May-30 10:00N 51°17' E 004°22'0 0.0
2018-May-30 09:30N 51°17' E 004°22'0 0.0
2018-May-30 08:59N 51°17' E 004°22'0 0.0
2018-May-30 08:29N 51°17' E 004°22'0 0.0
2018-May-30 07:59N 51°17' E 004°22'0 0.0
2018-May-30 07:26N 51°17' E 004°22'0 0.0
2018-May-30 06:56N 51°17' E 004°22'0 0.0
2018-May-30 06:25N 51°17' E 004°22'0 0.0
2018-May-30 05:58N 51°17' E 004°22'0 0.0
2018-May-30 05:28N 51°17' E 004°22'0 0.0
2018-May-30 04:55N 51°17' E 004°22'0 0.0
2018-May-30 04:31N 51°17' E 004°22'0 0.0
2018-May-30 04:00N 51°17' E 004°22'1 2.7
2018-May-30 03:30N 51°17' E 004°20'3 6.7
2018-May-30 03:00N 51°20' E 004°18'1 1.1
2018-May-30 02:30N 51°21' E 004°17'0 0.1
2018-May-30 02:00N 51°21' E 004°17'2 4.7
2018-May-30 01:30N 51°22' E 004°14'510.3
2018-May-30 01:01N 51°22' E 004°05'  

Dump ship's entire track history